Time;durP1;ratioP1;P1;durP2;ratioP2;P2;SDS_P1;SDS_P2;PMS_P1;PMS_P2;Temp;Humidity;BMP_temperature;BMP_pressure;BME280_temperature;BME280_humidity;BME280_pressure;Samples;Min_cycle;Max_cycle;Signal;HPM_P1;HPM_P2
2023/02/26 00:07:09;;;;;;;1.73;1.33;;;;;;;0.13;74.48;99247.88;30980904;28;96684;-77
2023/02/26 00:22:10;;;;;;;16.48;5.07;;;;;;;0.16;74.86;99252.88;30979755;28;96688;-79
2023/02/26 00:37:25;;;;;;;5.57;2.67;;;;;;;0.15;74.68;99268.69;30980660;28;97130;-79
2023/02/26 00:52:36;;;;;;;7.85;3.63;;;;;;;0.06;74.56;99282.56;30989099;28;97121;-78
2023/02/26 01:08:06;;;;;;;5.75;2.72;;;;;;;0.08;74.53;99293.75;30998820;28;96629;-76
2023/02/26 01:23:13;;;;;;;4.95;2.85;;;;;;;0.09;74.51;99313.75;30994852;28;96767;-74
2023/02/26 01:38:27;;;;;;;4.65;2.65;;;;;;;0.09;74.52;99334.69;30996188;28;97431;-76
2023/02/26 01:53:27;;;;;;;8.93;4.77;;;;;;;0.05;74.54;99344.56;30993590;28;97339;-77
2023/02/26 02:08:28;;;;;;;7.07;5.28;;;;;;;0.04;74.87;99361.25;30992622;28;96661;-74
2023/02/26 02:23:28;;;;;;;9.93;6.82;;;;;;;0.05;74.75;99386.47;30990246;28;96758;-75
2023/02/26 02:38:56;;;;;;;7.93;4.68;;;;;;;0.07;74.64;99412.53;30989219;28;96586;-74
2023/02/26 02:54:05;;;;;;;5.75;4.18;;;;;;;0.09;74.86;99431.59;30988264;28;97152;-77
2023/02/26 03:09:07;;;;;;;7.60;3.72;;;;;;;0.11;74.82;99442.75;30986432;28;97272;-71
2023/02/26 03:24:16;;;;;;;3.88;2.20;;;;;;;0.04;74.69;99475.63;30984741;28;97130;-74
2023/02/26 03:39:30;;;;;;;2.60;1.50;;;;;;;0.06;74.46;99505.19;30983759;28;97616;-73
2023/02/26 03:54:39;;;;;;;0.87;0.80;;;;;;;0.13;74.60;99532.53;30981740;28;96665;-70
2023/02/26 04:09:45;;;;;;;2.63;1.33;;;;;;;0.10;74.31;99548.50;30979961;28;96815;-73
2023/02/26 04:24:45;;;;;;;2.65;1.55;;;;;;;0.10;73.99;99566.84;30976509;28;97357;-73
2023/02/26 04:39:46;;;;;;;1.45;1.25;;;;;;;0.02;73.74;99577.06;30978197;28;97155;-73
2023/02/26 04:54:46;;;;;;;2.10;1.17;;;;;;;-0.02;73.65;99592.19;30976725;28;97003;-73
2023/02/26 05:09:47;;;;;;;3.13;1.20;;;;;;;-0.04;73.40;99609.78;30974657;28;96652;-71
2023/02/26 05:24:48;;;;;;;2.65;1.55;;;;;;;-0.08;73.29;99627.53;30973388;28;97524;-72
2023/02/26 05:39:49;;;;;;;2.25;1.60;;;;;;;-0.14;73.19;99643.69;30986030;28;96636;-72
2023/02/26 05:54:49;;;;;;;2.13;1.20;;;;;;;-0.10;73.16;99667.84;30992331;28;97354;-72
2023/02/26 06:09:49;;;;;;;3.05;1.40;;;;;;;0.01;72.99;99695.88;30990967;28;97361;-71
2023/02/26 06:24:50;;;;;;;5.65;1.17;;;;;;;0.10;72.81;99726.63;30988214;28;97597;-71
2023/02/26 06:39:50;;;;;;;2.30;1.30;;;;;;;0.33;72.47;99756.34;30988375;28;96851;-69
2023/02/26 06:54:51;;;;;;;2.20;1.55;;;;;;;0.58;72.39;99773.66;30980519;28;97868;-69
2023/02/26 07:09:51;;;;;;;2.75;1.30;;;;;;;0.74;71.25;99803.94;30981262;28;96908;-69
2023/02/26 07:24:51;;;;;;;3.17;1.73;;;;;;;0.79;71.06;99815.78;30982860;28;97060;-69
2023/02/26 07:39:52;;;;;;;2.55;1.55;;;;;;;0.87;70.82;99856.31;30975694;28;97026;-72
2023/02/26 07:54:52;;;;;;;2.17;1.50;;;;;;;1.05;70.90;99873.25;30968262;28;97232;-75
2023/02/26 08:09:53;;;;;;;1.98;1.30;;;;;;;1.24;70.23;99898.94;30968557;28;96815;-72
2023/02/26 08:24:54;;;;;;;2.70;1.45;;;;;;;1.45;69.85;99919.22;30966351;28;97225;-71
2023/02/26 08:39:54;;;;;;;3.05;1.80;;;;;;;1.96;69.51;99936.31;30965849;28;97294;-71
2023/02/26 08:54:55;;;;;;;3.05;1.73;;;;;;;2.15;68.57;99954.09;30964618;28;96855;-68
2023/02/26 09:09:55;;;;;;;3.97;1.90;;;;;;;2.13;68.06;99988.38;30970081;28;97137;-68
2023/02/26 09:24:56;;;;;;;3.15;1.90;;;;;;;2.09;67.93;100015.84;30978784;28;97650;-70
2023/02/26 09:39:57;;;;;;;3.47;1.80;;;;;;;2.56;67.50;100035.84;30958145;28;97686;-71
2023/02/26 09:55:00;;;;;;;4.07;1.80;;;;;;;2.88;67.29;100062.22;30980401;28;96730;-69
2023/02/26 10:10:22;;;;;;;3.95;1.58;;;;;;;2.93;66.35;100081.13;30980514;28;97282;-73
2023/02/26 10:25:50;;;;;;;5.68;2.03;;;;;;;3.02;66.63;100096.16;30976295;28;97861;-73
2023/02/26 10:40:58;;;;;;;3.25;1.67;;;;;;;3.04;65.97;100117.91;30934823;28;97181;-75
2023/02/26 10:56:07;;;;;;;5.03;1.92;;;;;;;3.50;65.72;100121.25;30948197;28;97381;-74
2023/02/26 11:11:08;;;;;;;3.83;1.80;;;;;;;6.50;61.94;100131.09;31038257;28;97611;-73
2023/02/26 11:26:16;;;;;;;9.83;2.10;;;;;;;6.62;60.25;100145.00;31020118;28;98221;-72
2023/02/26 11:41:17;;;;;;;8.63;2.05;;;;;;;7.20;57.89;100155.25;31034537;28;97141;-70
2023/02/26 11:56:56;;;;;;;4.97;2.33;;;;;;;5.56;57.91;100181.03;31003485;28;98148;-71
2023/02/26 12:12:28;;;;;;;3.47;1.55;;;;;;;5.09;58.38;100208.03;31012968;28;97569;-76
2023/02/26 12:27:37;;;;;;;3.63;1.77;;;;;;;5.36;59.18;100206.59;31092261;28;96791;-72
2023/02/26 12:43:03;;;;;;;3.25;1.88;;;;;;;8.02;57.31;100228.63;31091175;28;97110;-71
2023/02/26 12:58:35;;;;;;;4.40;2.60;;;;;;;5.83;57.64;100242.13;30905106;28;96692;-72
2023/02/26 13:13:52;;;;;;;5.68;2.78;;;;;;;13.27;58.20;100245.72;30943597;28;97887;-72
2023/02/26 13:28:58;;;;;;;9.17;2.00;;;;;;;25.98;37.47;100264.47;30983520;28;97489;-68
2023/02/26 13:44:12;;;;;;;3.67;1.63;;;;;;;20.36;31.41;100269.09;30919781;28;97223;-65
2023/02/26 13:59:12;;;;;;;2.67;1.00;;;;;;;11.05;38.46;100298.91;30855433;28;96997;-74
2023/02/26 14:14:18;;;;;;;3.13;0.80;;;;;;;11.98;40.71;100300.03;30855270;28;98837;-69
2023/02/26 14:29:36;;;;;;;1.70;0.93;;;;;;;11.69;39.26;100312.19;30937336;28;97411;-72
2023/02/26 14:44:44;;;;;;;4.33;1.20;;;;;;;7.70;44.12;100326.28;30977616;28;97272;-73
2023/02/26 15:00:08;;;;;;;3.43;1.77;;;;;;;5.41;48.11;100352.34;30974906;28;97342;-68
2023/02/26 15:15:31;;;;;;;5.83;2.10;;;;;;;3.98;51.20;100365.06;30971708;28;97095;-67
2023/02/26 15:30:33;;;;;;;8.20;2.15;;;;;;;3.52;53.04;100382.72;30966744;28;96836;-67
2023/02/26 15:45:40;;;;;;;4.50;2.25;;;;;;;2.52;54.65;100398.19;30971420;28;96950;-67
2023/02/26 16:00:41;;;;;;;5.20;2.13;;;;;;;1.90;55.78;100409.66;30950215;28;96717;-66
2023/02/26 16:15:42;;;;;;;7.45;3.13;;;;;;;1.23;57.27;100437.03;30849335;28;96791;-67
2023/02/26 16:30:46;;;;;;;9.23;3.88;;;;;;;0.88;58.87;100461.25;30901289;28;96784;-68
2023/02/26 16:45:53;;;;;;;8.15;2.70;;;;;;;0.95;60.03;100484.31;30941460;28;96831;-67
2023/02/26 17:01:01;;;;;;;7.68;2.83;;;;;;;0.69;60.20;100514.88;30964295;28;97033;-67
2023/02/26 17:16:03;;;;;;;4.80;3.35;;;;;;;0.04;61.27;100533.78;30889862;28;96847;-69
2023/02/26 17:31:04;;;;;;;10.75;3.95;;;;;;;-0.48;62.64;100543.84;30883180;28;96708;-70
2023/02/26 17:46:04;;;;;;;11.60;4.97;;;;;;;-0.49;63.80;100552.66;30977218;28;97615;-66
2023/02/26 18:01:06;;;;;;;7.40;4.22;;;;;;;-0.38;64.20;100572.97;30978959;28;97192;-68
2023/02/26 18:16:21;;;;;;;10.13;5.18;;;;;;;-0.24;65.11;100583.44;30979349;28;97373;-71
2023/02/26 18:31:21;;;;;;;;;;;;;;;0.18;65.64;100601.94;30888170;28;97512;-71
2023/02/26 18:46:22;;;;;;;7.72;3.75;;;;;;;0.28;64.91;100608.28;30978674;28;97300;-72
2023/02/26 19:01:23;;;;;;;10.32;3.05;;;;;;;0.20;64.77;100633.28;30974624;28;97030;-70
2023/02/26 19:16:23;;;;;;;3.38;2.00;;;;;;;-0.03;64.61;100667.78;30978595;28;96897;-69
2023/02/26 19:31:24;;;;;;;9.90;2.50;;;;;;;0.01;64.82;100678.06;30971766;28;96821;-71
2023/02/26 19:46:24;;;;;;;5.53;1.95;;;;;;;0.08;64.31;100697.72;30970877;28;96854;-68
2023/02/26 20:01:25;;;;;;;4.68;1.80;;;;;;;0.22;64.58;100713.47;30967968;28;97509;-70
2023/02/26 20:16:25;;;;;;;4.00;1.98;;;;;;;0.20;64.01;100731.06;30966499;28;96786;-69
2023/02/26 20:31:26;;;;;;;7.63;2.95;;;;;;;0.13;63.96;100754.16;30966317;28;97281;-71
2023/02/26 20:46:26;;;;;;;6.88;3.45;;;;;;;0.19;63.73;100763.44;30966938;28;97116;-72
2023/02/26 21:01:34;;;;;;;8.60;3.72;;;;;;;0.30;63.72;100776.78;30942902;28;98684;-72
2023/02/26 21:16:35;;;;;;;7.75;2.90;;;;;;;0.35;63.42;100773.03;30871042;28;96753;-72
2023/02/26 21:31:36;;;;;;;4.85;2.33;;;;;;;0.33;63.04;100792.31;30874141;28;97830;-73
2023/02/26 21:46:36;;;;;;;10.25;3.38;;;;;;;0.32;62.93;100803.72;30859225;28;96717;-71
2023/02/26 22:01:37;;;;;;;7.18;3.70;;;;;;;0.31;62.79;100811.66;30939823;28;97763;-72
2023/02/26 22:16:37;;;;;;;12.73;4.95;;;;;;;0.31;62.65;100835.25;30980007;28;96957;-71
2023/02/26 22:31:37;;;;;;;98.03;51.35;;;;;;;0.40;62.91;100847.00;30916827;28;97628;-80
2023/02/26 22:46:38;;;;;;;11.80;4.45;;;;;;;0.45;62.69;100865.91;30865391;28;97659;-68
2023/02/26 23:01:38;;;;;;;11.95;4.85;;;;;;;0.43;62.70;100866.00;30863855;28;96699;-68
2023/02/26 23:16:39;;;;;;;10.75;5.22;;;;;;;0.44;62.38;100874.72;30862606;28;96934;-68
2023/02/26 23:31:40;;;;;;;11.80;5.20;;;;;;;0.38;62.52;100888.19;30860259;28;97772;-69
2023/02/26 23:46:40;;;;;;;13.23;5.13;;;;;;;0.37;62.75;100910.06;30859587;28;96701;-69
